FMCZ

Details ICAO FMCZ (DZA)
Name Dzaoudzi Pamandzi
Region Comoros, Mayotte, Réunion and Madagascar
Timezone Unknown (UTC+0.0)
Plans Departing 86
Arriving 116
Stats Elevation 23 ft / 7 m (AMSL)
Location -12.809439° 45.282224°
Runways 1
Magnetic Variation 8.144° W
Sunrise 2018-05-24 03:13:13 UTC / 2018-05-24 03:13:13 Local
Sunset 2018-05-24 14:41:03 UTC / 2018-05-24 14:41:03 Local
Advertisement - Login to hide

Runways

ID Width Length Bearing (true) Bearing (mag) Surface Threshold Offset Overrun Length
16 92 ft / 28 m 6,109 ft / 1,862 m 149.93° 158.07° Asphalt 250 ft / 76 m 250 ft / 76 m
34 92 ft / 28 m 6,109 ft / 1,862 m 329.93° 338.07° Asphalt 0 ft / 0 m 82 ft / 25 m

Map

Weather


0- 5 10 15 20 25 30 35+ Temperature / ° C

Clouds and Precipitation
Forecast for 2018-05-24 00:00 UTC. Updated an hour ago

Ground ~20,000 ft ~40,000 ft Winds

METAR

FMCZ 240030Z AUTO 14012KT 9999 FEW041 BKN160 27/22 Q1014 BECMG 24005KT

TAF

Not found

Frequencies

Tower 119.20 MHz AFIS
Warning: Do not use this data for real-world aviation or navigation. No guarantee of current accuracy is given.